Time;durP1;ratioP1;P1;durP2;ratioP2;P2;SDS_P1;SDS_P2;PMS_P1;PMS_P2;Temp;Humidity;BMP_temperature;BMP_pressure;BME280_temperature;BME280_humidity;BME280_pressure;Samples;Min_cycle;Max_cycle;Signal;HPM_P1;HPM_P2
2024/02/29 00:01:09;;;;;;;23.38;4.68;;;;;;;8.47;100.00;99489.63;5050529;28;20045;-58
2024/02/29 00:03:37;;;;;;;16.33;4.10;;;;;;;8.44;100.00;99484.84;5061653;28;20052;-59
2024/02/29 00:06:04;;;;;;;18.25;4.05;;;;;;;8.45;100.00;99475.38;5067437;28;20395;-58
2024/02/29 00:08:32;;;;;;;27.00;4.75;;;;;;;8.45;100.00;99487.22;5057060;28;20048;-59
2024/02/29 00:10:59;;;;;;;22.20;5.72;;;;;;;8.47;100.00;99486.88;5064237;28;20048;-58
2024/02/29 00:13:26;;;;;;;21.70;4.95;;;;;;;8.48;100.00;99496.72;5065878;28;20088;-58
2024/02/29 00:15:54;;;;;;;23.13;6.03;;;;;;;8.46;100.00;99505.38;5068108;28;20060;-58
2024/02/29 00:18:22;;;;;;;24.35;4.57;;;;;;;8.45;100.00;99491.94;5067690;28;20406;-58
2024/02/29 00:20:49;;;;;;;20.25;5.05;;;;;;;8.42;100.00;99506.44;5068176;28;20060;-55
2024/02/29 00:23:16;;;;;;;25.05;5.38;;;;;;;8.38;100.00;99508.34;5067742;28;20044;-58
2024/02/29 00:25:44;;;;;;;19.33;3.80;;;;;;;8.34;100.00;99490.94;5067771;28;20049;-58
2024/02/29 00:28:11;;;;;;;18.88;4.85;;;;;;;8.28;100.00;99497.88;5068027;28;20469;-58
2024/02/29 00:30:39;;;;;;;26.10;4.63;;;;;;;8.23;100.00;99501.69;5067399;28;20071;-56
2024/02/29 00:33:06;;;;;;;23.90;4.35;;;;;;;8.23;100.00;99501.69;5063720;28;20049;-58
2024/02/29 00:35:33;;;;;;;16.55;3.13;;;;;;;8.22;100.00;99511.09;5059035;28;20064;-57
2024/02/29 00:38:01;;;;;;;20.85;3.42;;;;;;;8.19;100.00;99489.75;5067193;28;20051;-56
2024/02/29 00:40:29;;;;;;;22.40;3.55;;;;;;;8.14;100.00;99492.00;5067630;28;20037;-58
2024/02/29 00:42:56;;;;;;;11.43;3.53;;;;;;;8.10;100.00;99507.66;5067787;28;20060;-58
2024/02/29 00:45:23;;;;;;;19.63;5.40;;;;;;;8.06;100.00;99515.03;5067220;28;20410;-59
2024/02/29 00:47:52;;;;;;;17.55;3.08;;;;;;;8.04;100.00;99498.06;5067332;28;20044;-58
2024/02/29 00:50:19;;;;;;;22.10;4.35;;;;;;;7.99;100.00;99502.69;5067214;28;20040;-57
2024/02/29 00:52:47;;;;;;;21.45;3.20;;;;;;;7.98;100.00;99500.31;5066927;28;20044;-58
2024/02/29 00:55:14;;;;;;;18.77;3.50;;;;;;;7.92;100.00;99502.53;5067066;28;20079;-58
2024/02/29 00:57:44;;;;;;;14.63;3.55;;;;;;;7.89;100.00;99502.44;5066744;28;20049;-58
2024/02/29 01:00:11;;;;;;;12.70;2.40;;;;;;;7.85;100.00;99507.88;5066336;28;20040;-57
2024/02/29 01:02:39;;;;;;;14.20;2.08;;;;;;;7.83;100.00;99509.41;5063042;28;20502;-56
2024/02/29 01:05:07;;;;;;;17.05;3.03;;;;;;;7.79;100.00;99505.75;5066853;28;20521;-60
2024/02/29 01:07:36;;;;;;;19.08;3.92;;;;;;;7.75;100.00;99513.94;5060286;28;20079;-59
2024/02/29 01:10:05;;;;;;;19.75;4.07;;;;;;;7.73;100.00;99505.19;5060427;28;20045;-59
2024/02/29 01:12:34;;;;;;;16.05;3.38;;;;;;;7.73;100.00;99502.44;5047911;28;20706;-59
2024/02/29 01:15:02;;;;;;;17.45;2.80;;;;;;;7.69;100.00;99509.84;5062493;28;20057;-57
2024/02/29 01:17:29;;;;;;;17.30;2.78;;;;;;;7.68;100.00;99510.19;5066921;28;20052;-58
2024/02/29 01:19:59;;;;;;;18.25;3.63;;;;;;;7.65;100.00;99503.44;5064778;28;20445;-57
2024/02/29 01:22:26;;;;;;;19.27;3.78;;;;;;;7.64;100.00;99512.88;5056656;28;20075;-59
2024/02/29 01:24:53;;;;;;;13.80;4.75;;;;;;;7.63;100.00;99513.19;5063640;28;20037;-57
2024/02/29 01:27:21;;;;;;;22.52;3.35;;;;;;;7.59;100.00;99518.66;5067140;28;20068;-57
2024/02/29 01:29:48;;;;;;;15.88;4.53;;;;;;;7.57;100.00;99517.41;5063335;28;20585;-57
2024/02/29 01:32:16;;;;;;;20.65;4.95;;;;;;;7.56;100.00;99516.59;5039729;28;20047;-55
2024/02/29 01:34:53;;;;;;;17.80;3.95;;;;;;;7.53;100.00;99525.56;5065865;28;20072;-59
2024/02/29 01:37:20;;;;;;;15.55;4.45;;;;;;;7.52;100.00;99520.41;5054969;28;20053;-59
2024/02/29 01:39:48;;;;;;;12.43;2.70;;;;;;;7.50;100.00;99514.44;5066287;28;20693;-59
2024/02/29 01:42:15;;;;;;;15.52;2.45;;;;;;;7.47;100.00;99506.88;5066986;28;20053;-58
2024/02/29 01:44:55;;;;;;;9.82;2.13;;;;;;;7.42;100.00;99510.72;5059693;28;20053;-57
2024/02/29 01:47:24;;;;;;;23.00;3.13;;;;;;;7.39;100.00;99510.63;5057438;28;20499;-56
2024/02/29 01:50:02;;;;;;;18.52;3.15;;;;;;;7.37;100.00;99502.72;5066694;28;20759;-56
2024/02/29 01:52:32;;;;;;;22.73;4.30;;;;;;;7.35;100.00;99507.78;5066100;28;20071;-58
2024/02/29 01:55:02;;;;;;;23.05;3.05;;;;;;;7.33;100.00;99501.84;5067156;28;20421;-58
2024/02/29 01:57:31;;;;;;;22.75;3.20;;;;;;;7.33;100.00;99496.34;5049385;28;20052;-57
2024/02/29 01:59:59;;;;;;;17.52;3.60;;;;;;;7.31;100.00;99495.88;5066047;28;20107;-57
2024/02/29 02:02:26;;;;;;;20.83;2.80;;;;;;;7.29;100.00;99498.97;5066222;28;20740;-55
2024/02/29 02:04:53;;;;;;;19.67;3.55;;;;;;;7.26;100.00;99502.44;5066570;28;20045;-57
2024/02/29 02:07:21;;;;;;;17.70;3.78;;;;;;;7.25;100.00;99511.84;5066445;28;20052;-57
2024/02/29 02:09:49;;;;;;;20.42;2.63;;;;;;;7.22;100.00;99504.31;5068151;28;20083;-57
2024/02/29 02:12:16;;;;;;;9.68;2.78;;;;;;;7.18;100.00;99499.84;5070794;28;20502;-54
2024/02/29 02:14:44;;;;;;;10.65;2.20;;;;;;;7.14;100.00;99504.47;5067387;28;20063;-58
2024/02/29 02:17:11;;;;;;;13.00;2.97;;;;;;;7.12;100.00;99495.78;5070562;28;20041;-58
2024/02/29 02:19:39;;;;;;;20.65;3.70;;;;;;;7.06;100.00;99492.47;5070384;28;20494;-58
2024/02/29 02:22:06;;;;;;;15.60;3.00;;;;;;;7.06;100.00;99497.97;5057105;28;20056;-56
2024/02/29 02:24:35;;;;;;;14.88;3.33;;;;;;;7.04;100.00;99496.72;5070285;28;20048;-58
2024/02/29 02:27:03;;;;;;;20.45;3.58;;;;;;;7.01;100.00;99495.47;5069441;28;20037;-59
2024/02/29 02:29:30;;;;;;;17.27;2.90;;;;;;;7.01;100.00;99501.00;5069142;28;20510;-58
2024/02/29 02:31:58;;;;;;;10.10;2.70;;;;;;;7.02;100.00;99496.25;5070228;28;20048;-58
2024/02/29 02:34:25;;;;;;;16.02;2.97;;;;;;;7.03;100.00;99500.63;5066895;28;20048;-58
2024/02/29 02:36:52;;;;;;;21.27;2.97;;;;;;;7.04;100.00;99504.97;5069569;28;20402;-59
2024/02/29 02:39:20;;;;;;;22.30;3.15;;;;;;;6.99;100.00;99497.00;5064841;28;20059;-58
2024/02/29 02:41:48;;;;;;;16.98;4.32;;;;;;;6.94;100.00;99492.53;5061002;28;20041;-57
2024/02/29 02:44:15;;;;;;;28.80;3.55;;;;;;;6.90;100.00;99496.34;5047153;28;20075;-58
2024/02/29 02:46:43;;;;;;;21.17;5.30;;;;;;;6.89;100.00;99498.28;5069673;28;20048;-56
2024/02/29 02:49:10;;;;;;;23.23;3.70;;;;;;;6.86;100.00;99496.22;5068523;28;20045;-58
2024/02/29 02:51:37;;;;;;;13.48;2.97;;;;;;;6.82;100.00;99487.09;5069182;28;20048;-57
2024/02/29 02:54:05;;;;;;;16.13;2.72;;;;;;;6.82;100.00;99486.28;5067571;28;20048;-58
2024/02/29 02:56:32;;;;;;;17.95;3.20;;;;;;;6.81;100.00;99479.16;5069505;28;20481;-59
2024/02/29 02:58:59;;;;;;;22.33;4.30;;;;;;;6.80;100.00;99478.38;5068947;28;20048;-57
2024/02/29 03:01:28;;;;;;;18.75;3.00;;;;;;;6.77;100.00;99478.28;5111887;23;20073;-56
2024/02/29 03:03:56;;;;;;;22.50;3.38;;;;;;;6.72;100.00;99482.88;5029652;28;20049;-57
2024/02/29 03:06:23;;;;;;;20.50;3.15;;;;;;;6.72;100.00;99477.38;5029871;28;20056;-57
2024/02/29 03:08:51;;;;;;;15.27;4.07;;;;;;;6.69;100.00;99477.28;5028523;28;20821;-55
2024/02/29 03:11:18;;;;;;;13.30;3.13;;;;;;;6.66;100.00;99478.78;5029251;28;20049;-56
2024/02/29 03:13:46;;;;;;;16.23;3.38;;;;;;;6.64;100.00;99467.34;5029398;28;20407;-58
2024/02/29 03:16:22;;;;;;;17.42;3.65;;;;;;;6.63;100.00;99471.22;5029540;28;20057;-56
2024/02/29 03:18:50;;;;;;;21.15;3.58;;;;;;;6.59;100.00;99464.81;5029849;28;20053;-59
2024/02/29 03:21:18;;;;;;;17.52;3.28;;;;;;;6.58;100.00;99456.94;5029078;28;20421;-59
2024/02/29 03:23:48;;;;;;;19.02;2.80;;;;;;;6.56;100.00;99456.50;5029266;28;20045;-57
2024/02/29 03:26:15;;;;;;;19.52;3.90;;;;;;;6.55;100.00;99460.38;5029341;28;20049;-58
2024/02/29 03:28:43;;;;;;;15.35;2.67;;;;;;;6.53;100.00;99451.69;5029424;28;20049;-58
2024/02/29 03:31:11;;;;;;;14.48;3.15;;;;;;;6.52;100.00;99450.06;5028846;28;20402;-55
2024/02/29 03:33:39;;;;;;;19.30;3.10;;;;;;;6.49;100.00;99448.81;5029000;28;20052;-57
2024/02/29 03:36:08;;;;;;;13.73;3.15;;;;;;;6.48;100.00;99449.19;5029241;28;20045;-57
2024/02/29 03:38:36;;;;;;;20.38;3.20;;;;;;;6.47;100.00;99448.38;5029351;28;20380;-59
2024/02/29 03:41:03;;;;;;;16.45;2.53;;;;;;;6.45;100.00;99442.44;5027646;28;20050;-55
2024/02/29 03:43:30;;;;;;;16.48;2.67;;;;;;;6.44;100.00;99429.81;5027910;28;20079;-57
2024/02/29 03:45:58;;;;;;;16.70;3.85;;;;;;;6.42;100.00;99428.59;5045557;28;20495;-56
2024/02/29 03:48:25;;;;;;;20.60;3.47;;;;;;;6.39;100.00;99424.59;5038177;28;20048;-56
2024/02/29 03:50:53;;;;;;;25.80;3.45;;;;;;;6.38;100.00;99433.97;5027111;28;20056;-58
2024/02/29 03:53:20;;;;;;;10.60;3.33;;;;;;;6.35;100.00;99433.88;5028975;28;20462;-58
2024/02/29 03:55:48;;;;;;;19.33;4.00;;;;;;;6.33;100.00;99431.47;5028074;28;20041;-57
2024/02/29 03:58:16;;;;;;;19.65;5.00;;;;;;;6.33;100.00;99453.47;5028912;28;20049;-57
2024/02/29 04:00:43;;;;;;;12.98;2.72;;;;;;;6.31;100.00;99433.78;5028671;28;20064;-57
2024/02/29 04:03:11;;;;;;;21.67;3.05;;;;;;;6.30;100.00;99437.66;5028665;28;20529;-54
2024/02/29 04:05:38;;;;;;;21.55;4.18;;;;;;;6.27;100.00;99441.13;5028153;28;20048;-57
2024/02/29 04:08:11;;;;;;;13.02;3.47;;;;;;;6.25;100.00;99443.41;5028021;28;20554;-56
2024/02/29 04:10:39;;;;;;;16.83;3.55;;;;;;;6.24;100.00;99447.31;5028459;28;20045;-58
2024/02/29 04:13:06;;;;;;;13.45;2.88;;;;;;;6.22;100.00;99446.88;5028454;28;20527;-57
2024/02/29 04:15:33;;;;;;;16.75;2.72;;;;;;;6.20;100.00;99440.09;5028835;28;20057;-57
2024/02/29 04:18:02;;;;;;;17.42;2.97;;;;;;;6.20;100.00;99443.66;5027897;28;20057;-58
2024/02/29 04:20:29;;;;;;;22.33;4.70;;;;;;;6.18;100.00;99439.66;5028644;28;20049;-58
2024/02/29 04:22:57;;;;;;;10.15;2.85;;;;;;;6.17;100.00;99443.56;5028352;28;20427;-55
2024/02/29 04:25:24;;;;;;;16.85;3.00;;;;;;;6.17;100.00;99447.09;5027894;28;20151;-59
2024/02/29 04:27:51;;;;;;;19.25;2.88;;;;;;;6.15;100.00;99457.63;5028127;28;20041;-56
2024/02/29 04:30:19;;;;;;;20.98;3.22;;;;;;;6.12;100.00;99459.13;5037103;28;20045;-59
2024/02/29 04:32:46;;;;;;;16.40;2.47;;;;;;;6.12;100.00;99458.31;5031299;28;20053;-57
2024/02/29 04:35:14;;;;;;;12.05;3.10;;;;;;;6.10;100.00;99444.13;5028245;28;20514;-58
2024/02/29 04:37:41;;;;;;;15.82;3.97;;;;;;;6.05;100.00;99458.91;5027670;28;20061;-57
2024/02/29 04:40:10;;;;;;;17.08;2.65;;;;;;;6.06;100.00;99462.47;5028007;28;20049;-57
2024/02/29 04:42:41;;;;;;;11.93;2.80;;;;;;;6.03;99.80;99463.16;5041448;28;20056;-57
2024/02/29 04:45:09;;;;;;;18.08;4.05;;;;;;;5.99;99.71;99468.53;5027532;28;20094;-57
2024/02/29 04:47:36;;;;;;;22.67;3.63;;;;;;;5.99;99.54;99456.75;5026030;28;20053;-57
2024/02/29 04:50:04;;;;;;;20.55;3.05;;;;;;;5.98;99.65;99457.91;5038572;28;20052;-57
2024/02/29 04:52:32;;;;;;;18.65;2.85;;;;;;;5.97;99.68;99462.59;5025926;28;20414;-58
2024/02/29 04:54:59;;;;;;;9.73;2.55;;;;;;;5.94;99.54;99462.47;5027617;28;20074;-58
2024/02/29 04:57:27;;;;;;;26.65;3.50;;;;;;;5.92;99.43;99465.59;5027841;28;20565;-56
2024/02/29 04:59:55;;;;;;;12.57;2.78;;;;;;;5.91;99.40;99468.66;5027985;28;20060;-57
2024/02/29 05:02:23;;;;;;;15.23;3.72;;;;;;;5.88;99.37;99458.34;5040135;28;20545;-57
2024/02/29 05:04:50;;;;;;;18.25;3.25;;;;;;;5.86;99.19;99461.47;5027406;28;20053;-55
2024/02/29 05:07:17;;;;;;;12.30;3.72;;;;;;;5.86;99.32;99460.66;5027368;28;20053;-57
2024/02/29 05:09:45;;;;;;;13.95;2.72;;;;;;;5.83;99.12;99459.38;5025662;28;20060;-56
2024/02/29 05:12:12;;;;;;;20.40;3.03;;;;;;;5.81;99.07;99455.38;5027355;28;20046;-59
2024/02/29 05:14:40;;;;;;;13.10;2.67;;;;;;;5.83;99.09;99458.56;5027528;28;20761;-58
2024/02/29 05:17:07;;;;;;;19.80;2.95;;;;;;;5.79;98.94;99460.41;5032489;28;20370;-55
2024/02/29 05:19:36;;;;;;;11.63;2.75;;;;;;;5.78;98.97;99458.78;5035472;28;20053;-57
2024/02/29 05:22:03;;;;;;;13.73;2.55;;;;;;;5.75;98.85;99459.47;5026692;28;20530;-56
2024/02/29 05:24:30;;;;;;;19.20;3.70;;;;;;;5.71;98.82;99453.91;5040101;28;20418;-56
2024/02/29 05:26:58;;;;;;;20.00;2.80;;;;;;;5.69;98.68;99439.72;5027664;28;20052;-58
2024/02/29 05:29:25;;;;;;;22.17;4.60;;;;;;;5.67;98.82;99431.00;5027441;28;20049;-58
2024/02/29 05:31:53;;;;;;;10.48;2.55;;;;;;;5.63;98.59;99437.53;5027030;28;20045;-55
2024/02/29 05:34:20;;;;;;;13.77;2.20;;;;;;;5.60;98.75;99440.97;5026782;28;20049;-54
2024/02/29 05:36:48;;;;;;;17.10;3.08;;;;;;;5.57;98.58;99439.72;5026996;28;20049;-57
2024/02/29 05:39:15;;;;;;;13.68;2.88;;;;;;;5.53;98.56;99436.84;5027465;28;20053;-57
2024/02/29 05:41:43;;;;;;;11.35;2.70;;;;;;;5.52;98.61;99431.72;5027166;28;20399;-57
2024/02/29 05:44:10;;;;;;;11.55;2.50;;;;;;;5.50;98.68;99426.56;5029906;28;20049;-55
2024/02/29 05:46:37;;;;;;;18.27;3.42;;;;;;;5.49;98.75;99446.91;5043017;28;20526;-58
2024/02/29 05:49:05;;;;;;;10.15;2.17;;;;;;;5.47;98.55;99443.72;5031296;28;20056;-57
2024/02/29 05:51:32;;;;;;;14.93;3.75;;;;;;;5.43;98.53;99442.78;5030900;28;20046;-56
2024/02/29 05:54:00;;;;;;;12.43;3.00;;;;;;;5.42;98.63;99441.22;5030477;28;20084;-57
2024/02/29 05:56:27;;;;;;;9.13;2.53;;;;;;;5.41;98.65;99447.03;5030981;28;20414;-57
2024/02/29 05:58:55;;;;;;;10.55;2.13;;;;;;;5.38;98.60;99448.50;5030632;28;20403;-56
2024/02/29 06:01:22;;;;;;;15.20;2.15;;;;;;;5.37;98.51;99435.16;5030508;28;20069;-59
2024/02/29 06:03:50;;;;;;;12.60;2.38;;;;;;;5.36;98.62;99439.03;5030616;28;20057;-57
2024/02/29 06:06:17;;;;;;;17.20;3.28;;;;;;;5.33;98.43;99429.53;5030732;28;20112;-56
2024/02/29 06:08:44;;;;;;;10.25;2.55;;;;;;;5.30;98.65;99421.97;5030014;28;20053;-58
2024/02/29 06:11:13;;;;;;;9.60;1.80;;;;;;;5.29;98.57;99416.84;5030386;28;20265;-58
2024/02/29 06:13:41;;;;;;;14.48;3.22;;;;;;;5.26;98.60;99421.06;5030153;28;20042;-58
2024/02/29 06:16:12;;;;;;;17.17;2.97;;;;;;;5.26;98.44;99421.06;5042522;28;20060;-57
2024/02/29 06:18:39;;;;;;;14.68;3.30;;;;;;;5.26;98.57;99425.75;5030785;28;20044;-57
2024/02/29 06:21:07;;;;;;;23.17;3.47;;;;;;;5.25;98.56;99424.16;5030321;28;20419;-57
2024/02/29 06:23:36;;;;;;;8.45;2.40;;;;;;;5.24;98.44;99431.56;5029930;28;20407;-57
2024/02/29 06:26:04;;;;;;;14.13;2.55;;;;;;;5.22;98.69;99425.63;5030691;28;20060;-57
2024/02/29 06:28:31;;;;;;;8.02;2.08;;;;;;;5.22;98.63;99433.84;5017603;28;20049;-58
2024/02/29 06:30:59;;;;;;;10.43;2.20;;;;;;;5.23;98.43;99431.94;5030420;28;20052;-56
2024/02/29 06:33:26;;;;;;;6.78;3.45;;;;;;;5.22;98.68;99436.59;5037405;28;20057;-59
2024/02/29 06:35:53;;;;;;;7.28;2.65;;;;;;;5.24;98.45;99439.03;5035921;28;20053;-58
2024/02/29 06:38:21;;;;;;;17.80;2.78;;;;;;;5.24;98.51;99436.28;5042642;28;20517;-58
2024/02/29 06:40:48;;;;;;;16.25;2.58;;;;;;;5.23;98.14;99430.00;5043299;28;20049;-58
2024/02/29 06:43:15;;;;;;;10.88;3.17;;;;;;;5.25;98.61;99429.63;5038240;28;20414;-58
2024/02/29 06:45:50;;;;;;;14.52;4.57;;;;;;;5.26;98.50;99439.47;5036330;28;20057;-56
2024/02/29 06:48:18;;;;;;;18.38;3.17;;;;;;;5.28;98.32;99432.50;5039966;28;20395;-59
2024/02/29 06:50:46;;;;;;;6.93;2.15;;;;;;;5.29;98.34;99438.78;5030037;28;20052;-57
2024/02/29 06:53:13;;;;;;;9.02;2.63;;;;;;;5.30;98.53;99435.69;5029932;28;20064;-56
2024/02/29 06:55:40;;;;;;;8.32;2.03;;;;;;;5.30;98.33;99438.44;5029011;28;20050;-57
2024/02/29 06:58:08;;;;;;;15.65;2.85;;;;;;;5.33;98.46;99440.50;5029868;28;20637;-58
2024/02/29 07:00:35;;;;;;;20.50;2.80;;;;;;;5.34;98.47;99433.09;5029823;28;20049;-56
2024/02/29 07:03:04;;;;;;;8.10;2.25;;;;;;;5.35;98.58;99432.72;5029887;28;20064;-57
2024/02/29 07:05:31;;;;;;;11.38;2.40;;;;;;;5.33;98.39;99443.25;5042641;28;20049;-57
2024/02/29 07:08:03;;;;;;;11.77;2.92;;;;;;;5.35;98.54;99440.16;5021180;28;20407;-58
2024/02/29 07:10:31;;;;;;;21.70;2.42;;;;;;;5.36;98.49;99437.09;5033761;28;20414;-58
2024/02/29 07:12:59;;;;;;;17.50;2.40;;;;;;;5.38;98.25;99428.50;5049519;28;20061;-57
2024/02/29 07:15:28;;;;;;;11.05;2.03;;;;;;;5.40;98.49;99437.97;5030863;28;20046;-57
2024/02/29 07:17:55;;;;;;;16.15;2.58;;;;;;;5.42;98.14;99438.47;5029668;28;20053;-58
2024/02/29 07:20:23;;;;;;;18.85;4.40;;;;;;;5.39;98.16;99441.91;5029106;28;20042;-57
2024/02/29 07:22:56;;;;;;;23.38;5.18;;;;;;;5.39;98.21;99436.41;5028476;28;20497;-58
2024/02/29 07:25:23;;;;;;;11.30;2.08;;;;;;;5.40;97.98;99437.22;5036912;28;20057;-58
2024/02/29 07:27:51;;;;;;;16.80;3.33;;;;;;;5.40;97.98;99431.72;5034775;28;20411;-58
2024/02/29 07:30:19;;;;;;;10.63;2.60;;;;;;;5.39;97.89;99427.38;5028786;28;20053;-57
2024/02/29 07:32:46;;;;;;;13.25;3.05;;;;;;;5.38;97.97;99428.50;5028884;28;20064;-57
2024/02/29 07:35:17;;;;;;;15.95;2.83;;;;;;;5.37;97.79;99433.22;5027838;28;20041;-57
2024/02/29 07:37:45;;;;;;;25.63;4.65;;;;;;;5.38;97.90;99436.72;5028464;28;20084;-57
2024/02/29 07:40:13;;;;;;;13.20;2.72;;;;;;;5.37;97.91;99433.22;5028709;28;20467;-58
2024/02/29 07:42:40;;;;;;;9.52;2.53;;;;;;;5.37;97.61;99441.44;5029033;28;20057;-59
2024/02/29 07:45:08;;;;;;;7.10;2.00;;;;;;;5.35;97.86;99427.25;5029348;28;20050;-58
2024/02/29 07:47:36;;;;;;;13.77;3.03;;;;;;;5.36;97.68;99419.81;5029024;28;20052;-59
2024/02/29 07:50:05;;;;;;;13.13;2.00;;;;;;;5.36;97.68;99409.63;5029029;28;20049;-56
2024/02/29 07:52:32;;;;;;;8.95;1.60;;;;;;;5.39;97.49;99400.72;5034951;28;20046;-57
2024/02/29 07:55:00;;;;;;;19.52;2.70;;;;;;;5.40;97.51;99405.06;5028269;28;20061;-59
2024/02/29 07:57:27;;;;;;;15.30;1.92;;;;;;;5.41;97.61;99423.13;5028601;28;20033;-57
2024/02/29 07:59:55;;;;;;;12.18;2.38;;;;;;;5.41;97.50;99427.81;5028772;28;20049;-57
2024/02/29 08:02:22;;;;;;;13.23;3.95;;;;;;;5.41;97.66;99428.63;5028740;28;20058;-58
2024/02/29 08:04:52;;;;;;;23.85;4.72;;;;;;;5.45;97.48;99446.00;5028644;28;20049;-58
2024/02/29 08:07:20;;;;;;;11.85;2.88;;;;;;;5.47;97.55;99443.72;5021627;28;20050;-58
2024/02/29 08:09:47;;;;;;;7.78;2.97;;;;;;;5.49;97.43;99430.44;5020548;28;20057;-57
2024/02/29 08:12:15;;;;;;;10.60;2.15;;;;;;;5.51;97.79;99432.84;5027233;28;20415;-58
2024/02/29 08:14:44;;;;;;;16.83;5.53;;;;;;;5.53;97.53;99431.34;5029169;28;20049;-58
2024/02/29 08:17:12;;;;;;;12.05;2.22;;;;;;;5.53;97.45;99428.59;5019350;28;20053;-58
2024/02/29 08:19:39;;;;;;;18.70;3.50;;;;;;;5.53;97.32;99438.81;5025792;28;20132;-60
2024/02/29 08:22:07;;;;;;;15.13;2.25;;;;;;;5.52;97.41;99440.75;5025038;28;20037;-60
2024/02/29 08:24:34;;;;;;;12.30;2.38;;;;;;;5.50;97.30;99431.25;5027829;28;20061;-60
2024/02/29 08:27:01;;;;;;;5.70;2.75;;;;;;;5.48;97.01;99439.81;5027524;28;20060;-58
2024/02/29 08:29:29;;;;;;;22.55;3.88;;;;;;;5.48;97.17;99439.81;5027118;28;20049;-59
2024/02/29 08:31:56;;;;;;;13.38;2.22;;;;;;;5.46;97.21;99457.78;5025598;28;20567;-59
2024/02/29 08:34:23;;;;;;;13.32;2.97;;;;;;;5.43;97.06;99464.75;5027705;28;20065;-59
2024/02/29 08:36:51;;;;;;;14.18;2.63;;;;;;;5.43;97.18;99459.25;5027906;28;20045;-58
2024/02/29 08:39:18;;;;;;;13.07;2.47;;;;;;;5.41;97.15;99450.56;5025993;28;20046;-58
2024/02/29 08:41:47;;;;;;;10.50;2.25;;;;;;;5.42;97.25;99462.38;5027483;28;20048;-57
2024/02/29 08:44:15;;;;;;;15.48;2.22;;;;;;;5.42;97.16;99457.69;5026025;28;20554;-58
2024/02/29 08:46:43;;;;;;;22.20;3.70;;;;;;;5.44;97.22;99471.84;5026776;28;20057;-58
2024/02/29 08:49:10;;;;;;;8.93;2.95;;;;;;;5.49;97.25;99479.84;5026706;28;20046;-58
2024/02/29 08:51:38;;;;;;;13.02;3.28;;;;;;;5.53;97.10;99467.03;5025522;28;20037;-59
2024/02/29 08:54:06;;;;;;;10.93;2.40;;;;;;;5.59;97.03;99466.84;5026965;28;20049;-60
2024/02/29 08:56:36;;;;;;;8.13;1.85;;;;;;;5.62;96.74;99471.63;5027349;28;20041;-59
2024/02/29 08:59:09;;;;;;;9.73;2.13;;;;;;;5.63;96.88;99452.06;5025534;28;20069;-60
2024/02/29 09:01:37;;;;;;;6.43;1.70;;;;;;;5.63;96.36;99452.06;5027465;28;20054;-60
2024/02/29 09:04:05;;;;;;;17.17;1.88;;;;;;;5.66;96.60;99467.06;5031678;28;20545;-58
2024/02/29 09:06:32;;;;;;;11.00;2.05;;;;;;;5.66;96.54;99467.06;5034378;28;20053;-60
2024/02/29 09:09:07;;;;;;;11.23;2.80;;;;;;;5.67;96.62;99452.16;5028496;28;20406;-55
2024/02/29 09:11:35;;;;;;;10.27;1.83;;;;;;;5.69;96.55;99455.38;5027145;28;20048;-61
2024/02/29 09:14:03;;;;;;;8.50;1.90;;;;;;;5.70;96.20;99457.78;5020621;28;20055;-57
2024/02/29 09:16:30;;;;;;;16.67;2.00;;;;;;;5.75;96.46;99462.22;5029929;28;20057;-60
2024/02/29 09:18:58;;;;;;;16.15;2.63;;;;;;;5.80;96.12;99456.53;5019480;28;20428;-54
2024/02/29 09:21:29;;;;;;;6.35;1.73;;;;;;;5.84;96.02;99462.91;5022361;28;20399;-60
2024/02/29 09:23:57;;;;;;;9.85;1.90;;;;;;;5.83;95.64;99455.81;5032885;28;20608;-59
2024/02/29 09:26:25;;;;;;;7.28;2.13;;;;;;;5.84;95.86;99457.44;5026655;28;20079;-60
2024/02/29 09:28:54;;;;;;;8.10;1.77;;;;;;;5.87;95.84;99451.28;5026429;28;20072;-60
2024/02/29 09:31:21;;;;;;;7.22;1.98;;;;;;;5.92;95.71;99443.59;5026557;28;20060;-57
2024/02/29 09:33:48;;;;;;;14.15;2.53;;;;;;;5.97;95.58;99448.06;5027112;28;20053;-59
2024/02/29 09:36:16;;;;;;;9.80;2.15;;;;;;;5.95;95.26;99445.66;5026964;28;20041;-59
2024/02/29 09:38:43;;;;;;;10.13;2.22;;;;;;;6.00;95.45;99433.63;5026290;28;20057;-57
2024/02/29 09:41:12;;;;;;;9.63;1.90;;;;;;;6.03;95.39;99432.94;5026399;28;20488;-60
2024/02/29 09:44:01;;;;;;;11.60;2.33;;;;;;;6.06;95.12;99433.03;5020377;28;20070;-61
2024/02/29 09:46:29;;;;;;;12.25;1.92;;;;;;;6.09;95.24;99439.78;5014143;28;20064;-59
2024/02/29 09:48:58;;;;;;;14.25;1.90;;;;;;;6.05;94.93;99439.69;5027227;28;20064;-58
2024/02/29 09:51:26;;;;;;;9.50;1.98;;;;;;;6.03;94.78;99428.25;5035156;28;20046;-59
2024/02/29 09:53:54;;;;;;;12.77;2.10;;;;;;;6.04;95.11;99418.03;5025756;28;20053;-56
2024/02/29 09:56:23;;;;;;;11.45;2.97;;;;;;;6.07;95.00;99422.84;5026146;28;20072;-58
2024/02/29 09:58:52;;;;;;;8.30;1.80;;;;;;;6.08;95.05;99433.50;5026011;28;20049;-59
2024/02/29 10:01:21;;;;;;;17.40;3.65;;;;;;;6.13;95.17;99437.94;5026155;28;20072;-59
2024/02/29 10:03:50;;;;;;;6.75;1.52;;;;;;;6.20;94.93;99431.84;5008512;28;20048;-57
2024/02/29 10:06:18;;;;;;;7.53;1.85;;;;;;;6.24;94.92;99432.78;5025947;28;20630;-59
2024/02/29 10:08:46;;;;;;;6.00;2.05;;;;;;;6.30;95.09;99443.16;5008556;28;20052;-58
2024/02/29 10:11:14;;;;;;;5.45;1.13;;;;;;;6.30;94.66;99432.16;5025947;28;20053;-59
2024/02/29 10:13:42;;;;;;;6.72;1.40;;;;;;;6.33;94.84;99430.69;5025677;28;20416;-59
2024/02/29 10:16:13;;;;;;;2.95;1.17;;;;;;;6.32;94.63;99424.38;5025729;28;20055;-59
2024/02/29 10:18:41;;;;;;;7.53;1.60;;;;;;;6.32;94.54;99413.41;5031973;28;20049;-59
2024/02/29 10:21:13;;;;;;;8.88;1.85;;;;;;;6.36;94.67;99413.47;5032737;28;20041;-58
2024/02/29 10:23:42;;;;;;;10.02;1.50;;;;;;;6.40;94.78;99420.69;5021869;28;20407;-59
2024/02/29 10:26:09;;;;;;;9.13;2.70;;;;;;;6.47;94.79;99423.63;5025480;28;20079;-58
2024/02/29 10:28:37;;;;;;;8.65;1.88;;;;;;;6.54;94.63;99426.56;5025648;28;20049;-60
2024/02/29 10:31:04;;;;;;;7.28;1.27;;;;;;;6.55;94.24;99428.19;5028215;28;20061;-57
2024/02/29 10:33:37;;;;;;;4.93;1.23;;;;;;;6.60;94.69;99422.44;5029101;28;20067;-59
2024/02/29 10:36:13;;;;;;;4.28;1.33;;;;;;;6.66;94.13;99429.28;5029110;28;20045;-59
2024/02/29 10:38:40;;;;;;;9.38;2.30;;;;;;;6.78;94.01;99424.88;5029544;28;20045;-58
2024/02/29 10:41:11;;;;;;;6.95;1.65;;;;;;;6.81;93.52;99418.66;5028770;28;20049;-58
2024/02/29 10:43:43;;;;;;;9.40;2.15;;;;;;;6.84;93.12;99426.19;5021688;28;20507;-59
2024/02/29 10:46:13;;;;;;;5.97;1.10;;;;;;;6.87;93.07;99420.81;5039926;28;20403;-59
2024/02/29 10:48:52;;;;;;;9.63;1.98;;;;;;;6.91;93.22;99416.19;5029165;28;20499;-58
2024/02/29 10:51:38;;;;;;;8.10;1.70;;;;;;;6.96;93.06;99404.13;5019028;28;20552;-58
2024/02/29 10:54:16;;;;;;;4.18;1.25;;;;;;;7.02;93.02;99408.22;5024770;28;20064;-57
2024/02/29 10:56:46;;;;;;;8.75;1.73;;;;;;;7.04;92.95;99411.44;5021128;28;20061;-59
2024/02/29 10:59:17;;;;;;;14.77;4.45;;;;;;;7.00;92.70;99405.81;5028789;28;20041;-60
2024/02/29 11:01:46;;;;;;;6.30;1.70;;;;;;;7.03;92.59;99393.31;5028591;28;20064;-59
2024/02/29 11:04:16;;;;;;;8.73;1.63;;;;;;;7.03;92.23;99412.56;5030632;28;20044;-59
2024/02/29 11:06:48;;;;;;;9.68;2.35;;;;;;;6.99;92.03;99404.22;5048636;28;20414;-59
2024/02/29 11:09:20;;;;;;;3.88;1.60;;;;;;;6.95;91.97;99408.84;5048997;28;20384;-60
2024/02/29 11:12:10;;;;;;;6.40;1.00;;;;;;;6.91;91.83;99393.41;5048288;28;21239;-57
2024/02/29 11:14:37;;;;;;;10.70;1.90;;;;;;;6.92;91.58;99408.72;5049064;28;20049;-60
2024/02/29 11:17:05;;;;;;;6.57;1.45;;;;;;;6.96;91.64;99401.38;5048341;28;20041;-58
2024/02/29 11:19:33;;;;;;;8.05;2.72;;;;;;;6.97;91.19;99397.47;5049304;28;20076;-58
2024/02/29 11:22:17;;;;;;;11.18;1.52;;;;;;;6.99;91.18;99400.69;5048468;28;20060;-60
2024/02/29 11:24:45;;;;;;;5.75;1.20;;;;;;;7.07;91.38;99399.72;5048451;28;20068;-59
2024/02/29 11:27:14;;;;;;;7.00;1.10;;;;;;;7.13;91.02;99399.06;5047903;28;20415;-59
2024/02/29 11:29:47;;;;;;;3.10;1.10;;;;;;;7.16;90.75;99397.56;5048446;28;20064;-59
2024/02/29 11:32:25;;;;;;;9.10;1.35;;;;;;;7.19;90.86;99394.13;5031010;28;20052;-58
2024/02/29 11:34:52;;;;;;;4.07;1.88;;;;;;;7.18;90.46;99400.75;5047792;28;20045;-59
2024/02/29 11:37:20;;;;;;;5.80;1.45;;;;;;;7.21;90.57;99400.06;5048826;28;20041;-59